sensor_id;sensor_type;location;lat;lon;timestamp;temperature;humidity
7920;DHT22;18778;47.610;9.776;2023-06-26T00:01:23;17.00;99.90
7920;DHT22;18778;47.610;9.776;2023-06-26T00:03:49;16.30;99.90
7920;DHT22;18778;47.610;9.776;2023-06-26T00:06:14;16.30;99.90
7920;DHT22;18778;47.610;9.776;2023-06-26T00:08:40;16.30;99.90
7920;DHT22;18778;47.610;9.776;2023-06-26T00:11:06;16.20;99.90
7920;DHT22;18778;47.610;9.776;2023-06-26T00:13:31;16.30;99.90
7920;DHT22;18778;47.610;9.776;2023-06-26T00:15:57;16.20;99.90
7920;DHT22;18778;47.610;9.776;2023-06-26T00:18:22;16.10;99.90
7920;DHT22;18778;47.610;9.776;2023-06-26T00:20:49;16.20;99.90
7920;DHT22;18778;47.610;9.776;2023-06-26T00:23:16;17.20;99.90
7920;DHT22;18778;47.610;9.776;2023-06-26T00:28:08;16.10;99.90
7920;DHT22;18778;47.610;9.776;2023-06-26T00:33:00;16.00;99.90
7920;DHT22;18778;47.610;9.776;2023-06-26T00:37:52;16.00;99.90
7920;DHT22;18778;47.610;9.776;2023-06-26T00:40:17;16.10;99.90
7920;DHT22;18778;47.610;9.776;2023-06-26T00:42:43;16.70;99.90
7920;DHT22;18778;47.610;9.776;2023-06-26T00:45:09;16.00;99.90
7920;DHT22;18778;47.610;9.776;2023-06-26T00:47:35;16.00;99.90
7920;DHT22;18778;47.610;9.776;2023-06-26T00:50:00;15.90;99.90
7920;DHT22;18778;47.610;9.776;2023-06-26T00:52:26;15.90;99.90
7920;DHT22;18778;47.610;9.776;2023-06-26T00:54:52;15.90;99.90
7920;DHT22;18778;47.610;9.776;2023-06-26T00:57:18;15.90;99.90
7920;DHT22;18778;47.610;9.776;2023-06-26T00:59:44;15.90;99.90
7920;DHT22;18778;47.610;9.776;2023-06-26T01:02:09;15.80;99.90
7920;DHT22;18778;47.610;9.776;2023-06-26T01:04:35;15.80;99.90
7920;DHT22;18778;47.610;9.776;2023-06-26T01:07:02;15.80;99.90
7920;DHT22;18778;47.610;9.776;2023-06-26T01:09:29;15.80;99.90
7920;DHT22;18778;47.610;9.776;2023-06-26T01:14:21;15.70;99.90
7920;DHT22;18778;47.610;9.776;2023-06-26T01:16:47;16.10;99.90
7920;DHT22;18778;47.610;9.776;2023-06-26T01:19:20;15.70;99.90
7920;DHT22;18778;47.610;9.776;2023-06-26T01:21:56;15.70;99.90
7920;DHT22;18778;47.610;9.776;2023-06-26T01:24:25;15.80;99.90
7920;DHT22;18778;47.610;9.776;2023-06-26T01:26:53;15.70;99.90
7920;DHT22;18778;47.610;9.776;2023-06-26T01:29:19;15.60;99.90
7920;DHT22;18778;47.610;9.776;2023-06-26T01:31:47;16.90;99.90
7920;DHT22;18778;47.610;9.776;2023-06-26T01:34:18;15.50;99.90
7920;DHT22;18778;47.610;9.776;2023-06-26T01:36:46;15.40;99.90
7920;DHT22;18778;47.610;9.776;2023-06-26T01:39:16;15.40;99.90
7920;DHT22;18778;47.610;9.776;2023-06-26T01:41:41;15.30;99.90
7920;DHT22;18778;47.610;9.776;2023-06-26T01:44:37;15.40;99.90
7920;DHT22;18778;47.610;9.776;2023-06-26T01:47:04;15.90;99.90
7920;DHT22;18778;47.610;9.776;2023-06-26T01:52:21;15.30;99.90
7920;DHT22;18778;47.610;9.776;2023-06-26T01:57:47;15.30;99.90
7920;DHT22;18778;47.610;9.776;2023-06-26T02:00:14;15.30;99.90
7920;DHT22;18778;47.610;9.776;2023-06-26T02:02:43;15.20;99.90
7920;DHT22;18778;47.610;9.776;2023-06-26T02:05:09;16.10;99.90
7920;DHT22;18778;47.610;9.776;2023-06-26T02:07:35;15.20;99.90
7920;DHT22;18778;47.610;9.776;2023-06-26T02:10:00;15.10;99.90
7920;DHT22;18778;47.610;9.776;2023-06-26T02:12:26;15.20;99.90
7920;DHT22;18778;47.610;9.776;2023-06-26T02:14:52;15.20;99.90
7920;DHT22;18778;47.610;9.776;2023-06-26T02:17:17;15.20;99.90
7920;DHT22;18778;47.610;9.776;2023-06-26T02:19:43;15.10;99.90
7920;DHT22;18778;47.610;9.776;2023-06-26T02:22:13;15.10;99.90
7920;DHT22;18778;47.610;9.776;2023-06-26T02:24:39;16.20;99.90
7920;DHT22;18778;47.610;9.776;2023-06-26T02:27:05;15.00;99.90
7920;DHT22;18778;47.610;9.776;2023-06-26T02:29:30;17.30;99.90
7920;DHT22;18778;47.610;9.776;2023-06-26T02:31:56;15.00;99.90
7920;DHT22;18778;47.610;9.776;2023-06-26T02:34:21;15.00;99.90
7920;DHT22;18778;47.610;9.776;2023-06-26T02:36:47;15.10;99.90
7920;DHT22;18778;47.610;9.776;2023-06-26T02:39:12;15.00;99.90
7920;DHT22;18778;47.610;9.776;2023-06-26T02:41:39;15.00;99.90
7920;DHT22;18778;47.610;9.776;2023-06-26T02:44:05;15.00;99.90
7920;DHT22;18778;47.610;9.776;2023-06-26T02:46:31;14.80;99.90
7920;DHT22;18778;47.610;9.776;2023-06-26T02:48:57;14.90;99.90
7920;DHT22;18778;47.610;9.776;2023-06-26T02:51:22;14.90;99.90
7920;DHT22;18778;47.610;9.776;2023-06-26T02:53:48;15.10;99.90
7920;DHT22;18778;47.610;9.776;2023-06-26T02:56:13;15.00;99.90
7920;DHT22;18778;47.610;9.776;2023-06-26T02:58:39;14.90;99.90
7920;DHT22;18778;47.610;9.776;2023-06-26T03:01:04;14.90;99.90
7920;DHT22;18778;47.610;9.776;2023-06-26T03:03:30;14.70;99.90
7920;DHT22;18778;47.610;9.776;2023-06-26T03:05:55;14.70;99.90
7920;DHT22;18778;47.610;9.776;2023-06-26T03:08:22;14.60;99.90
7920;DHT22;18778;47.610;9.776;2023-06-26T03:10:47;14.60;99.90
7920;DHT22;18778;47.610;9.776;2023-06-26T03:13:13;14.60;99.90
7920;DHT22;18778;47.610;9.776;2023-06-26T03:15:38;15.90;99.90
7920;DHT22;18778;47.610;9.776;2023-06-26T03:18:04;14.40;99.90
7920;DHT22;18778;47.610;9.776;2023-06-26T03:20:30;14.60;99.90
7920;DHT22;18778;47.610;9.776;2023-06-26T03:22:55;14.70;99.90
7920;DHT22;18778;47.610;9.776;2023-06-26T03:25:21;16.10;99.90
7920;DHT22;18778;47.610;9.776;2023-06-26T03:27:47;15.20;99.90
7920;DHT22;18778;47.610;9.776;2023-06-26T03:30:12;14.50;99.90
7920;DHT22;18778;47.610;9.776;2023-06-26T03:32:38;14.50;99.90
7920;DHT22;18778;47.610;9.776;2023-06-26T03:35:04;15.00;99.90
7920;DHT22;18778;47.610;9.776;2023-06-26T03:37:29;14.60;99.90
7920;DHT22;18778;47.610;9.776;2023-06-26T03:39:55;15.00;99.90
7920;DHT22;18778;47.610;9.776;2023-06-26T03:42:21;14.50;99.90
7920;DHT22;18778;47.610;9.776;2023-06-26T03:44:46;14.50;99.90
7920;DHT22;18778;47.610;9.776;2023-06-26T03:47:12;14.80;99.90
7920;DHT22;18778;47.610;9.776;2023-06-26T03:49:37;14.60;99.90
7920;DHT22;18778;47.610;9.776;2023-06-26T03:52:03;14.70;99.90
7920;DHT22;18778;47.610;9.776;2023-06-26T03:54:28;14.70;99.90
7920;DHT22;18778;47.610;9.776;2023-06-26T03:56:54;15.70;99.90
7920;DHT22;18778;47.610;9.776;2023-06-26T03:59:20;14.80;99.90
7920;DHT22;18778;47.610;9.776;2023-06-26T04:01:45;14.90;99.90
7920;DHT22;18778;47.610;9.776;2023-06-26T04:04:11;16.20;99.90
7920;DHT22;18778;47.610;9.776;2023-06-26T04:09:02;14.90;99.90
7920;DHT22;18778;47.610;9.776;2023-06-26T04:11:29;14.80;99.90
7920;DHT22;18778;47.610;9.776;2023-06-26T04:13:54;14.80;99.90
7920;DHT22;18778;47.610;9.776;2023-06-26T04:16:21;14.80;99.90
7920;DHT22;18778;47.610;9.776;2023-06-26T04:18:46;14.80;99.90
7920;DHT22;18778;47.610;9.776;2023-06-26T04:21:12;14.90;99.90
7920;DHT22;18778;47.610;9.776;2023-06-26T04:23:39;15.00;99.90
7920;DHT22;18778;47.610;9.776;2023-06-26T04:26:06;17.40;99.90
7920;DHT22;18778;47.610;9.776;2023-06-26T04:28:32;17.70;99.90
7920;DHT22;18778;47.610;9.776;2023-06-26T04:30:59;15.00;99.90
7920;DHT22;18778;47.610;9.776;2023-06-26T04:33:25;15.20;99.90
7920;DHT22;18778;47.610;9.776;2023-06-26T04:35:51;18.70;99.90
7920;DHT22;18778;47.610;9.776;2023-06-26T04:38:18;15.30;99.90
7920;DHT22;18778;47.610;9.776;2023-06-26T04:40:43;15.30;99.90
7920;DHT22;18778;47.610;9.776;2023-06-26T04:43:09;15.60;99.90
7920;DHT22;18778;47.610;9.776;2023-06-26T04:45:35;17.30;99.90
7920;DHT22;18778;47.610;9.776;2023-06-26T04:48:00;15.70;99.90
7920;DHT22;18778;47.610;9.776;2023-06-26T04:50:26;16.10;99.90
7920;DHT22;18778;47.610;9.776;2023-06-26T04:52:54;16.30;99.90
7920;DHT22;18778;47.610;9.776;2023-06-26T04:55:20;16.10;99.90
7920;DHT22;18778;47.610;9.776;2023-06-26T04:57:47;16.10;99.90
7920;DHT22;18778;47.610;9.776;2023-06-26T05:00:13;16.20;99.90
7920;DHT22;18778;47.610;9.776;2023-06-26T05:02:39;16.40;99.90
7920;DHT22;18778;47.610;9.776;2023-06-26T05:05:05;16.50;99.90
7920;DHT22;18778;47.610;9.776;2023-06-26T05:07:30;16.60;99.90
7920;DHT22;18778;47.610;9.776;2023-06-26T05:09:56;16.70;99.90
7920;DHT22;18778;47.610;9.776;2023-06-26T05:12:22;16.80;99.90
7920;DHT22;18778;47.610;9.776;2023-06-26T05:14:47;17.20;99.90
7920;DHT22;18778;47.610;9.776;2023-06-26T05:17:16;17.20;99.90
7920;DHT22;18778;47.610;9.776;2023-06-26T05:22:08;17.50;99.90
7920;DHT22;18778;47.610;9.776;2023-06-26T05:24:38;17.50;99.90
7920;DHT22;18778;47.610;9.776;2023-06-26T05:27:04;17.60;99.90
7920;DHT22;18778;47.610;9.776;2023-06-26T05:29:31;17.80;99.90
7920;DHT22;18778;47.610;9.776;2023-06-26T05:31:57;17.90;99.90
7920;DHT22;18778;47.610;9.776;2023-06-26T05:34:23;18.00;99.90
7920;DHT22;18778;47.610;9.776;2023-06-26T05:36:57;18.20;99.90
7920;DHT22;18778;47.610;9.776;2023-06-26T05:39:23;18.30;99.90
7920;DHT22;18778;47.610;9.776;2023-06-26T05:41:50;18.50;99.90
7920;DHT22;18778;47.610;9.776;2023-06-26T05:44:15;18.70;99.90
7920;DHT22;18778;47.610;9.776;2023-06-26T05:46:41;18.90;99.90
7920;DHT22;18778;47.610;9.776;2023-06-26T05:49:07;19.00;99.90
7920;DHT22;18778;47.610;9.776;2023-06-26T05:51:32;19.20;99.90
7920;DHT22;18778;47.610;9.776;2023-06-26T05:53:58;19.40;99.90
7920;DHT22;18778;47.610;9.776;2023-06-26T05:56:24;19.50;99.90
7920;DHT22;18778;47.610;9.776;2023-06-26T06:01:17;19.90;99.90
7920;DHT22;18778;47.610;9.776;2023-06-26T06:03:43;20.00;99.90
7920;DHT22;18778;47.610;9.776;2023-06-26T06:06:08;20.20;99.90
7920;DHT22;18778;47.610;9.776;2023-06-26T06:08:34;20.30;99.90
7920;DHT22;18778;47.610;9.776;2023-06-26T06:11:00;20.40;99.90
7920;DHT22;18778;47.610;9.776;2023-06-26T06:13:26;20.50;99.90
7920;DHT22;18778;47.610;9.776;2023-06-26T06:15:54;20.80;99.90
7920;DHT22;18778;47.610;9.776;2023-06-26T06:18:20;20.80;99.90
7920;DHT22;18778;47.610;9.776;2023-06-26T06:20:46;21.00;99.90
7920;DHT22;18778;47.610;9.776;2023-06-26T06:25:38;21.30;99.90
7920;DHT22;18778;47.610;9.776;2023-06-26T06:28:04;21.30;99.90
7920;DHT22;18778;47.610;9.776;2023-06-26T06:30:30;21.50;99.90
7920;DHT22;18778;47.610;9.776;2023-06-26T06:32:56;21.60;99.90
7920;DHT22;18778;47.610;9.776;2023-06-26T06:35:21;21.70;99.90
7920;DHT22;18778;47.610;9.776;2023-06-26T06:37:47;21.90;99.90
7920;DHT22;18778;47.610;9.776;2023-06-26T06:40:14;22.10;99.90
7920;DHT22;18778;47.610;9.776;2023-06-26T06:42:39;22.20;99.90
7920;DHT22;18778;47.610;9.776;2023-06-26T06:45:06;22.20;99.90
7920;DHT22;18778;47.610;9.776;2023-06-26T06:47:32;22.30;99.90
7920;DHT22;18778;47.610;9.776;2023-06-26T06:49:57;22.30;99.90
7920;DHT22;18778;47.610;9.776;2023-06-26T06:52:24;22.40;99.90
7920;DHT22;18778;47.610;9.776;2023-06-26T06:54:54;22.50;99.90
7920;DHT22;18778;47.610;9.776;2023-06-26T06:57:23;22.70;99.90
7920;DHT22;18778;47.610;9.776;2023-06-26T06:59:48;22.80;99.90
7920;DHT22;18778;47.610;9.776;2023-06-26T07:02:16;22.90;99.90
7920;DHT22;18778;47.610;9.776;2023-06-26T07:04:41;23.00;99.90
7920;DHT22;18778;47.610;9.776;2023-06-26T07:07:07;23.20;99.90
7920;DHT22;18778;47.610;9.776;2023-06-26T07:09:34;23.20;99.90
7920;DHT22;18778;47.610;9.776;2023-06-26T07:11:59;23.30;99.90
7920;DHT22;18778;47.610;9.776;2023-06-26T07:14:25;23.50;99.90
7920;DHT22;18778;47.610;9.776;2023-06-26T07:16:51;23.50;99.90
7920;DHT22;18778;47.610;9.776;2023-06-26T07:19:16;23.60;99.90
7920;DHT22;18778;47.610;9.776;2023-06-26T07:21:42;23.70;99.90
7920;DHT22;18778;47.610;9.776;2023-06-26T07:24:10;23.80;99.90
7920;DHT22;18778;47.610;9.776;2023-06-26T07:26:36;23.90;99.90
7920;DHT22;18778;47.610;9.776;2023-06-26T07:29:03;24.00;99.90
7920;DHT22;18778;47.610;9.776;2023-06-26T07:33:56;24.20;99.90
7920;DHT22;18778;47.610;9.776;2023-06-26T07:36:21;24.20;99.90
7920;DHT22;18778;47.610;9.776;2023-06-26T07:38:47;24.30;99.90
7920;DHT22;18778;47.610;9.776;2023-06-26T07:41:13;24.40;99.90
7920;DHT22;18778;47.610;9.776;2023-06-26T07:43:39;24.60;99.90
7920;DHT22;18778;47.610;9.776;2023-06-26T07:46:05;24.60;99.90
7920;DHT22;18778;47.610;9.776;2023-06-26T07:48:30;24.60;99.90
7920;DHT22;18778;47.610;9.776;2023-06-26T07:50:56;24.60;99.90
7920;DHT22;18778;47.610;9.776;2023-06-26T07:53:21;24.80;99.90
7920;DHT22;18778;47.610;9.776;2023-06-26T07:55:47;24.90;99.90
7920;DHT22;18778;47.610;9.776;2023-06-26T07:58:12;25.10;99.90
7920;DHT22;18778;47.610;9.776;2023-06-26T08:00:38;25.20;99.90
7920;DHT22;18778;47.610;9.776;2023-06-26T08:03:04;25.40;99.90
7920;DHT22;18778;47.610;9.776;2023-06-26T08:05:29;25.50;99.90
7920;DHT22;18778;47.610;9.776;2023-06-26T08:07:55;25.50;99.90
7920;DHT22;18778;47.610;9.776;2023-06-26T08:10:20;25.50;99.90
7920;DHT22;18778;47.610;9.776;2023-06-26T08:12:46;25.60;99.90
7920;DHT22;18778;47.610;9.776;2023-06-26T08:15:12;25.70;99.90
7920;DHT22;18778;47.610;9.776;2023-06-26T08:17:38;25.80;99.90
7920;DHT22;18778;47.610;9.776;2023-06-26T08:20:04;25.90;99.90
7920;DHT22;18778;47.610;9.776;2023-06-26T08:22:33;26.20;99.20
7920;DHT22;18778;47.610;9.776;2023-06-26T08:24:59;26.20;99.70
7920;DHT22;18778;47.610;9.776;2023-06-26T08:27:25;26.30;99.90
7920;DHT22;18778;47.610;9.776;2023-06-26T08:29:50;26.50;99.90
7920;DHT22;18778;47.610;9.776;2023-06-26T08:32:16;26.70;99.90
7920;DHT22;18778;47.610;9.776;2023-06-26T08:34:41;26.70;99.90
7920;DHT22;18778;47.610;9.776;2023-06-26T08:37:07;26.80;99.90
7920;DHT22;18778;47.610;9.776;2023-06-26T08:39:34;26.90;99.90
7920;DHT22;18778;47.610;9.776;2023-06-26T08:42:00;27.00;99.90
7920;DHT22;18778;47.610;9.776;2023-06-26T08:44:26;27.10;99.90
7920;DHT22;18778;47.610;9.776;2023-06-26T08:46:51;27.00;99.90
7920;DHT22;18778;47.610;9.776;2023-06-26T08:52:23;26.90;99.80
7920;DHT22;18778;47.610;9.776;2023-06-26T08:54:56;27.00;97.70
7920;DHT22;18778;47.610;9.776;2023-06-26T08:57:23;27.00;97.50
7920;DHT22;18778;47.610;9.776;2023-06-26T08:59:50;27.00;99.90
7920;DHT22;18778;47.610;9.776;2023-06-26T09:02:17;27.30;98.50
7920;DHT22;18778;47.610;9.776;2023-06-26T09:04:42;27.30;98.00
7920;DHT22;18778;47.610;9.776;2023-06-26T09:07:08;27.60;99.20
7920;DHT22;18778;47.610;9.776;2023-06-26T09:09:34;27.70;96.70
7920;DHT22;18778;47.610;9.776;2023-06-26T09:12:02;27.60;97.70
7920;DHT22;18778;47.610;9.776;2023-06-26T09:14:29;27.60;98.50
7920;DHT22;18778;47.610;9.776;2023-06-26T09:16:55;27.70;99.30
7920;DHT22;18778;47.610;9.776;2023-06-26T09:19:20;27.80;97.20
7920;DHT22;18778;47.610;9.776;2023-06-26T09:21:49;27.80;97.10
7920;DHT22;18778;47.610;9.776;2023-06-26T09:24:16;27.80;95.40
7920;DHT22;18778;47.610;9.776;2023-06-26T09:26:42;27.80;96.20
7920;DHT22;18778;47.610;9.776;2023-06-26T09:29:09;27.80;96.40
7920;DHT22;18778;47.610;9.776;2023-06-26T09:31:39;27.80;95.60
7920;DHT22;18778;47.610;9.776;2023-06-26T09:34:05;27.80;94.70
7920;DHT22;18778;47.610;9.776;2023-06-26T09:36:32;27.70;96.00
7920;DHT22;18778;47.610;9.776;2023-06-26T09:39:02;27.80;98.70
7920;DHT22;18778;47.610;9.776;2023-06-26T09:41:28;28.00;96.40
7920;DHT22;18778;47.610;9.776;2023-06-26T09:43:54;28.40;95.80
7920;DHT22;18778;47.610;9.776;2023-06-26T09:46:28;28.50;96.00
7920;DHT22;18778;47.610;9.776;2023-06-26T09:51:22;28.60;97.30
7920;DHT22;18778;47.610;9.776;2023-06-26T09:53:48;28.50;97.60
7920;DHT22;18778;47.610;9.776;2023-06-26T09:56:17;28.60;94.60
7920;DHT22;18778;47.610;9.776;2023-06-26T09:58:43;28.50;96.40
7920;DHT22;18778;47.610;9.776;2023-06-26T10:01:09;28.40;96.10
7920;DHT22;18778;47.610;9.776;2023-06-26T10:03:35;28.50;97.40
7920;DHT22;18778;47.610;9.776;2023-06-26T10:06:02;28.80;96.80
7920;DHT22;18778;47.610;9.776;2023-06-26T10:08:28;29.00;95.00
7920;DHT22;18778;47.610;9.776;2023-06-26T10:10:56;29.20;95.50
7920;DHT22;18778;47.610;9.776;2023-06-26T10:13:28;29.30;95.60
7920;DHT22;18778;47.610;9.776;2023-06-26T10:15:59;29.40;93.70
7920;DHT22;18778;47.610;9.776;2023-06-26T10:18:27;29.40;93.00
7920;DHT22;18778;47.610;9.776;2023-06-26T10:20:55;29.40;93.10
7920;DHT22;18778;47.610;9.776;2023-06-26T10:23:23;29.40;91.40
7920;DHT22;18778;47.610;9.776;2023-06-26T10:25:51;29.20;92.30
7920;DHT22;18778;47.610;9.776;2023-06-26T10:42:37;29.70;91.90
7920;DHT22;18778;47.610;9.776;2023-06-26T10:50:28;29.70;92.40
7920;DHT22;18778;47.610;9.776;2023-06-26T10:53:21;29.70;93.20
7920;DHT22;18778;47.610;9.776;2023-06-26T11:06:09;30.10;88.10
7920;DHT22;18778;47.610;9.776;2023-06-26T11:11:16;30.10;91.30
7920;DHT22;18778;47.610;9.776;2023-06-26T11:18:45;30.40;85.10
7920;DHT22;18778;47.610;9.776;2023-06-26T11:21:12;30.40;82.50
7920;DHT22;18778;47.610;9.776;2023-06-26T11:31:34;30.40;83.40
7920;DHT22;18778;47.610;9.776;2023-06-26T11:34:01;30.40;83.70
7920;DHT22;18778;47.610;9.776;2023-06-26T11:39:00;30.70;84.60
7920;DHT22;18778;47.610;9.776;2023-06-26T11:41:30;30.70;81.20
7920;DHT22;18778;47.610;9.776;2023-06-26T11:44:01;30.70;85.10
7920;DHT22;18778;47.610;9.776;2023-06-26T11:46:27;30.70;83.40
7920;DHT22;18778;47.610;9.776;2023-06-26T11:59:05;30.90;82.60
7920;DHT22;18778;47.610;9.776;2023-06-26T12:01:41;31.20;81.00
7920;DHT22;18778;47.610;9.776;2023-06-26T12:04:09;31.30;79.60
7920;DHT22;18778;47.610;9.776;2023-06-26T12:06:39;31.40;78.30
7920;DHT22;18778;47.610;9.776;2023-06-26T12:09:10;31.30;78.40
7920;DHT22;18778;47.610;9.776;2023-06-26T12:11:41;31.10;75.70
7920;DHT22;18778;47.610;9.776;2023-06-26T12:29:06;31.60;77.10
7920;DHT22;18778;47.610;9.776;2023-06-26T12:38:53;31.50;74.20
7920;DHT22;18778;47.610;9.776;2023-06-26T12:48:42;31.70;75.80
7920;DHT22;18778;47.610;9.776;2023-06-26T13:03:29;31.90;74.70
7920;DHT22;18778;47.610;9.776;2023-06-26T13:05:55;31.90;71.30
7920;DHT22;18778;47.610;9.776;2023-06-26T13:08:20;31.90;72.40
7920;DHT22;18778;47.610;9.776;2023-06-26T13:10:46;32.00;74.60
7920;DHT22;18778;47.610;9.776;2023-06-26T13:59:37;34.60;63.50
7920;DHT22;18778;47.610;9.776;2023-06-26T14:02:05;34.60;63.90
7920;DHT22;18778;47.610;9.776;2023-06-26T15:27:30;38.80;50.00
7920;DHT22;18778;47.610;9.776;2023-06-26T15:37:14;37.80;51.20
7920;DHT22;18778;47.610;9.776;2023-06-26T15:39:40;37.70;51.20
7920;DHT22;18778;47.610;9.776;2023-06-26T15:54:22;38.00;50.60
7920;DHT22;18778;47.610;9.776;2023-06-26T15:56:48;37.80;51.80
7920;DHT22;18778;47.610;9.776;2023-06-26T16:01:44;38.00;54.00
7920;DHT22;18778;47.610;9.776;2023-06-26T16:04:11;38.20;53.70
7920;DHT22;18778;47.610;9.776;2023-06-26T16:06:37;38.80;51.50
7920;DHT22;18778;47.610;9.776;2023-06-26T16:09:03;39.00;53.20
7920;DHT22;18778;47.610;9.776;2023-06-26T16:11:28;38.70;50.90
7920;DHT22;18778;47.610;9.776;2023-06-26T16:13:54;38.40;51.10
7920;DHT22;18778;47.610;9.776;2023-06-26T16:16:20;38.20;53.00
7920;DHT22;18778;47.610;9.776;2023-06-26T16:18:46;38.30;52.60
7920;DHT22;18778;47.610;9.776;2023-06-26T16:21:11;38.00;53.20
7920;DHT22;18778;47.610;9.776;2023-06-26T16:23:37;36.80;55.30
7920;DHT22;18778;47.610;9.776;2023-06-26T16:26:03;36.10;54.70
7920;DHT22;18778;47.610;9.776;2023-06-26T16:28:28;34.90;57.20
7920;DHT22;18778;47.610;9.776;2023-06-26T16:30:54;34.30;59.10
7920;DHT22;18778;47.610;9.776;2023-06-26T16:33:19;33.30;62.20
7920;DHT22;18778;47.610;9.776;2023-06-26T16:35:45;32.90;63.10
7920;DHT22;18778;47.610;9.776;2023-06-26T16:38:11;32.80;63.00
7920;DHT22;18778;47.610;9.776;2023-06-26T16:40:36;33.40;62.00
7920;DHT22;18778;47.610;9.776;2023-06-26T16:43:02;34.30;58.90
7920;DHT22;18778;47.610;9.776;2023-06-26T16:45:28;34.20;59.00
7920;DHT22;18778;47.610;9.776;2023-06-26T16:47:53;34.20;59.70
7920;DHT22;18778;47.610;9.776;2023-06-26T16:50:19;34.50;58.00
7920;DHT22;18778;47.610;9.776;2023-06-26T16:52:45;35.20;55.80
7920;DHT22;18778;47.610;9.776;2023-06-26T16:55:11;35.20;55.40
7920;DHT22;18778;47.610;9.776;2023-06-26T16:57:37;35.20;56.20
7920;DHT22;18778;47.610;9.776;2023-06-26T17:00:04;35.20;55.90
7920;DHT22;18778;47.610;9.776;2023-06-26T17:02:30;35.70;55.10
7920;DHT22;18778;47.610;9.776;2023-06-26T17:04:59;35.60;55.30
7920;DHT22;18778;47.610;9.776;2023-06-26T17:07:25;35.60;56.30
7920;DHT22;18778;47.610;9.776;2023-06-26T17:09:50;35.80;55.00
7920;DHT22;18778;47.610;9.776;2023-06-26T17:12:16;35.60;54.50
7920;DHT22;18778;47.610;9.776;2023-06-26T17:14:42;35.50;54.40
7920;DHT22;18778;47.610;9.776;2023-06-26T17:17:08;35.20;56.10
7920;DHT22;18778;47.610;9.776;2023-06-26T17:19:36;34.90;56.80
7920;DHT22;18778;47.610;9.776;2023-06-26T17:22:03;34.80;57.00
7920;DHT22;18778;47.610;9.776;2023-06-26T17:24:29;34.70;58.00
7920;DHT22;18778;47.610;9.776;2023-06-26T17:27:08;34.30;57.80
7920;DHT22;18778;47.610;9.776;2023-06-26T17:29:34;33.50;59.20
7920;DHT22;18778;47.610;9.776;2023-06-26T17:32:00;32.60;59.90
7920;DHT22;18778;47.610;9.776;2023-06-26T17:34:25;31.90;61.80
7920;DHT22;18778;47.610;9.776;2023-06-26T17:36:51;31.40;61.60
7920;DHT22;18778;47.610;9.776;2023-06-26T17:39:16;30.80;63.10
7920;DHT22;18778;47.610;9.776;2023-06-26T17:41:42;30.40;64.80
7920;DHT22;18778;47.610;9.776;2023-06-26T17:44:08;30.10;66.30
7920;DHT22;18778;47.610;9.776;2023-06-26T17:46:33;29.80;64.20
7920;DHT22;18778;47.610;9.776;2023-06-26T17:48:59;29.70;66.50
7920;DHT22;18778;47.610;9.776;2023-06-26T17:51:24;29.40;66.30
7920;DHT22;18778;47.610;9.776;2023-06-26T17:53:50;29.10;67.30
7920;DHT22;18778;47.610;9.776;2023-06-26T17:56:16;28.90;67.30
7920;DHT22;18778;47.610;9.776;2023-06-26T17:58:41;28.70;68.40
7920;DHT22;18778;47.610;9.776;2023-06-26T18:01:07;28.50;69.60
7920;DHT22;18778;47.610;9.776;2023-06-26T18:03:33;28.20;70.00
7920;DHT22;18778;47.610;9.776;2023-06-26T18:05:58;27.90;70.70
7920;DHT22;18778;47.610;9.776;2023-06-26T18:08:24;27.60;70.10
7920;DHT22;18778;47.610;9.776;2023-06-26T18:10:49;27.40;71.60
7920;DHT22;18778;47.610;9.776;2023-06-26T18:13:15;26.90;71.90
7920;DHT22;18778;47.610;9.776;2023-06-26T18:15:40;26.90;72.70
7920;DHT22;18778;47.610;9.776;2023-06-26T18:18:06;26.60;73.20
7920;DHT22;18778;47.610;9.776;2023-06-26T18:20:31;26.60;74.60
7920;DHT22;18778;47.610;9.776;2023-06-26T18:22:57;26.50;73.80
7920;DHT22;18778;47.610;9.776;2023-06-26T18:25:24;26.40;74.60
7920;DHT22;18778;47.610;9.776;2023-06-26T18:27:49;26.20;75.10
7920;DHT22;18778;47.610;9.776;2023-06-26T18:30:15;26.10;75.60
7920;DHT22;18778;47.610;9.776;2023-06-26T18:32:42;26.00;76.30
7920;DHT22;18778;47.610;9.776;2023-06-26T18:35:07;25.90;76.60
7920;DHT22;18778;47.610;9.776;2023-06-26T18:37:33;25.80;77.50
7920;DHT22;18778;47.610;9.776;2023-06-26T18:39:59;25.80;78.20
7920;DHT22;18778;47.610;9.776;2023-06-26T18:42:24;25.80;78.50
7920;DHT22;18778;47.610;9.776;2023-06-26T18:44:50;25.70;79.00
7920;DHT22;18778;47.610;9.776;2023-06-26T18:47:15;25.70;79.40
7920;DHT22;18778;47.610;9.776;2023-06-26T18:49:44;25.60;79.30
7920;DHT22;18778;47.610;9.776;2023-06-26T18:52:11;25.50;80.50
7920;DHT22;18778;47.610;9.776;2023-06-26T18:54:36;25.50;81.40
7920;DHT22;18778;47.610;9.776;2023-06-26T18:57:02;25.40;82.00
7920;DHT22;18778;47.610;9.776;2023-06-26T18:59:28;25.30;83.30
7920;DHT22;18778;47.610;9.776;2023-06-26T19:01:54;25.20;83.90
7920;DHT22;18778;47.610;9.776;2023-06-26T19:04:20;25.20;84.40
7920;DHT22;18778;47.610;9.776;2023-06-26T19:06:46;25.10;84.90
7920;DHT22;18778;47.610;9.776;2023-06-26T19:09:12;25.10;86.10
7920;DHT22;18778;47.610;9.776;2023-06-26T19:11:38;25.00;86.40
7920;DHT22;18778;47.610;9.776;2023-06-26T19:14:03;24.90;88.30
7920;DHT22;18778;47.610;9.776;2023-06-26T19:16:29;24.90;88.60
7920;DHT22;18778;47.610;9.776;2023-06-26T19:18:54;24.90;88.40
7920;DHT22;18778;47.610;9.776;2023-06-26T19:21:22;24.70;90.10
7920;DHT22;18778;47.610;9.776;2023-06-26T19:23:47;24.70;88.30
7920;DHT22;18778;47.610;9.776;2023-06-26T19:26:13;24.70;87.60
7920;DHT22;18778;47.610;9.776;2023-06-26T19:28:39;24.80;87.50
7920;DHT22;18778;47.610;9.776;2023-06-26T19:31:05;24.70;87.90
7920;DHT22;18778;47.610;9.776;2023-06-26T19:33:30;24.70;87.70
7920;DHT22;18778;47.610;9.776;2023-06-26T19:35:56;24.70;87.10
7920;DHT22;18778;47.610;9.776;2023-06-26T19:38:22;24.70;85.70
7920;DHT22;18778;47.610;9.776;2023-06-26T19:40:47;24.60;86.00
7920;DHT22;18778;47.610;9.776;2023-06-26T19:43:13;24.50;86.10
7920;DHT22;18778;47.610;9.776;2023-06-26T19:45:38;24.50;87.50
7920;DHT22;18778;47.610;9.776;2023-06-26T19:48:04;24.40;86.50
7920;DHT22;18778;47.610;9.776;2023-06-26T19:50:30;24.40;86.50
7920;DHT22;18778;47.610;9.776;2023-06-26T19:52:56;24.40;86.30
7920;DHT22;18778;47.610;9.776;2023-06-26T19:55:21;24.30;85.80
7920;DHT22;18778;47.610;9.776;2023-06-26T19:57:47;24.30;86.70
7920;DHT22;18778;47.610;9.776;2023-06-26T20:00:16;24.30;87.60
7920;DHT22;18778;47.610;9.776;2023-06-26T20:02:43;24.30;86.90
7920;DHT22;18778;47.610;9.776;2023-06-26T20:05:08;24.30;86.90
7920;DHT22;18778;47.610;9.776;2023-06-26T20:07:34;24.30;86.30
7920;DHT22;18778;47.610;9.776;2023-06-26T20:10:02;24.30;86.30
7920;DHT22;18778;47.610;9.776;2023-06-26T20:12:28;24.20;85.80
7920;DHT22;18778;47.610;9.776;2023-06-26T20:14:53;24.20;86.70
7920;DHT22;18778;47.610;9.776;2023-06-26T20:17:19;24.10;86.60
7920;DHT22;18778;47.610;9.776;2023-06-26T20:19:44;24.00;87.70
7920;DHT22;18778;47.610;9.776;2023-06-26T20:22:10;24.10;86.50
7920;DHT22;18778;47.610;9.776;2023-06-26T20:24:35;24.10;87.10